sensor_id;sensor_type;location;lat;lon;timestamp;P1;durP1;ratioP1;P2;durP2;ratioP2
79493;SDS011;68951;53.130;18.104;2023-04-07T00:01:36;5.80;;;2.80;;
79493;SDS011;68951;53.130;18.104;2023-04-07T00:04:03;8.50;;;3.20;;
79493;SDS011;68951;53.130;18.104;2023-04-07T00:06:30;10.00;;;4.40;;
79493;SDS011;68951;53.130;18.104;2023-04-07T00:08:56;10.60;;;5.60;;
79493;SDS011;68951;53.130;18.104;2023-04-07T00:11:23;8.80;;;4.00;;
79493;SDS011;68951;53.130;18.104;2023-04-07T00:13:50;8.00;;;3.30;;
79493;SDS011;68951;53.130;18.104;2023-04-07T00:16:17;8.90;;;3.80;;
79493;SDS011;68951;53.130;18.104;2023-04-07T00:18:44;10.50;;;3.90;;
79493;SDS011;68951;53.130;18.104;2023-04-07T00:21:11;9.50;;;3.50;;
79493;SDS011;68951;53.130;18.104;2023-04-07T00:23:38;7.20;;;2.50;;
79493;SDS011;68951;53.130;18.104;2023-04-07T00:26:05;6.70;;;3.10;;
79493;SDS011;68951;53.130;18.104;2023-04-07T00:28:32;7.70;;;3.70;;
79493;SDS011;68951;53.130;18.104;2023-04-07T00:30:58;8.60;;;2.90;;
79493;SDS011;68951;53.130;18.104;2023-04-07T00:33:25;10.30;;;4.30;;
79493;SDS011;68951;53.130;18.104;2023-04-07T00:35:52;7.50;;;2.80;;
79493;SDS011;68951;53.130;18.104;2023-04-07T00:38:19;9.40;;;4.80;;
79493;SDS011;68951;53.130;18.104;2023-04-07T00:40:46;11.20;;;4.90;;
79493;SDS011;68951;53.130;18.104;2023-04-07T00:43:13;11.20;;;5.00;;
79493;SDS011;68951;53.130;18.104;2023-04-07T00:45:40;10.80;;;4.80;;
79493;SDS011;68951;53.130;18.104;2023-04-07T00:48:07;13.00;;;4.90;;
79493;SDS011;68951;53.130;18.104;2023-04-07T00:50:35;10.70;;;4.20;;
79493;SDS011;68951;53.130;18.104;2023-04-07T00:53:03;13.30;;;3.90;;
79493;SDS011;68951;53.130;18.104;2023-04-07T00:55:31;9.10;;;4.50;;
79493;SDS011;68951;53.130;18.104;2023-04-07T00:57:57;8.20;;;3.60;;
79493;SDS011;68951;53.130;18.104;2023-04-07T01:00:25;8.70;;;3.70;;
79493;SDS011;68951;53.130;18.104;2023-04-07T01:02:59;10.00;;;3.50;;
79493;SDS011;68951;53.130;18.104;2023-04-07T01:05:54;12.00;;;5.90;;
79493;SDS011;68951;53.130;18.104;2023-04-07T01:08:45;10.80;;;4.80;;
79493;SDS011;68951;53.130;18.104;2023-04-07T01:14:08;12.30;;;5.10;;
79493;SDS011;68951;53.130;18.104;2023-04-07T01:16:44;11.70;;;4.00;;
79493;SDS011;68951;53.130;18.104;2023-04-07T01:22:31;10.70;;;4.30;;
79493;SDS011;68951;53.130;18.104;2023-04-07T01:30:38;9.80;;;3.40;;
79493;SDS011;68951;53.130;18.104;2023-04-07T01:33:09;10.30;;;3.80;;
79493;SDS011;68951;53.130;18.104;2023-04-07T01:35:38;9.80;;;3.50;;
79493;SDS011;68951;53.130;18.104;2023-04-07T01:38:07;13.70;;;5.50;;
79493;SDS011;68951;53.130;18.104;2023-04-07T01:40:35;11.70;;;4.60;;
79493;SDS011;68951;53.130;18.104;2023-04-07T01:43:04;11.70;;;5.20;;
79493;SDS011;68951;53.130;18.104;2023-04-07T01:45:34;9.70;;;5.40;;
79493;SDS011;68951;53.130;18.104;2023-04-07T01:48:04;12.60;;;5.00;;
79493;SDS011;68951;53.130;18.104;2023-04-07T01:50:33;10.50;;;4.80;;
79493;SDS011;68951;53.130;18.104;2023-04-07T01:53:02;12.50;;;5.10;;
79493;SDS011;68951;53.130;18.104;2023-04-07T01:55:30;12.10;;;4.60;;
79493;SDS011;68951;53.130;18.104;2023-04-07T01:57:57;8.90;;;4.00;;
79493;SDS011;68951;53.130;18.104;2023-04-07T02:00:24;9.40;;;3.40;;
79493;SDS011;68951;53.130;18.104;2023-04-07T02:02:54;10.20;;;3.30;;
79493;SDS011;68951;53.130;18.104;2023-04-07T02:05:25;8.70;;;3.30;;
79493;SDS011;68951;53.130;18.104;2023-04-07T02:07:59;9.10;;;4.50;;
79493;SDS011;68951;53.130;18.104;2023-04-07T02:10:29;12.10;;;5.00;;
79493;SDS011;68951;53.130;18.104;2023-04-07T02:13:04;10.60;;;4.60;;
79493;SDS011;68951;53.130;18.104;2023-04-07T02:15:35;9.90;;;4.70;;
79493;SDS011;68951;53.130;18.104;2023-04-07T02:18:03;9.80;;;4.60;;
79493;SDS011;68951;53.130;18.104;2023-04-07T02:20:34;9.80;;;4.50;;
79493;SDS011;68951;53.130;18.104;2023-04-07T02:23:02;10.40;;;4.10;;
79493;SDS011;68951;53.130;18.104;2023-04-07T02:25:31;8.10;;;3.10;;
79493;SDS011;68951;53.130;18.104;2023-04-07T02:27:59;9.20;;;4.00;;
79493;SDS011;68951;53.130;18.104;2023-04-07T02:30:27;8.40;;;3.60;;
79493;SDS011;68951;53.130;18.104;2023-04-07T02:32:54;8.90;;;3.70;;
79493;SDS011;68951;53.130;18.104;2023-04-07T02:35:21;10.60;;;3.30;;
79493;SDS011;68951;53.130;18.104;2023-04-07T02:37:48;11.70;;;5.20;;
79493;SDS011;68951;53.130;18.104;2023-04-07T02:40:15;12.70;;;5.10;;
79493;SDS011;68951;53.130;18.104;2023-04-07T02:42:42;10.90;;;4.90;;
79493;SDS011;68951;53.130;18.104;2023-04-07T02:45:10;13.40;;;5.00;;
79493;SDS011;68951;53.130;18.104;2023-04-07T02:47:38;9.50;;;4.50;;
79493;SDS011;68951;53.130;18.104;2023-04-07T02:50:05;8.60;;;3.90;;
79493;SDS011;68951;53.130;18.104;2023-04-07T02:52:33;10.40;;;4.30;;
79493;SDS011;68951;53.130;18.104;2023-04-07T02:55:00;9.90;;;4.00;;
79493;SDS011;68951;53.130;18.104;2023-04-07T02:57:27;8.80;;;4.20;;
79493;SDS011;68951;53.130;18.104;2023-04-07T02:59:53;9.10;;;4.10;;
79493;SDS011;68951;53.130;18.104;2023-04-07T03:02:23;8.00;;;3.30;;
79493;SDS011;68951;53.130;18.104;2023-04-07T03:04:51;10.40;;;4.60;;
79493;SDS011;68951;53.130;18.104;2023-04-07T03:07:18;12.60;;;5.00;;
79493;SDS011;68951;53.130;18.104;2023-04-07T03:09:45;9.50;;;4.70;;
79493;SDS011;68951;53.130;18.104;2023-04-07T03:12:12;8.90;;;4.40;;
79493;SDS011;68951;53.130;18.104;2023-04-07T03:14:39;9.40;;;4.80;;
79493;SDS011;68951;53.130;18.104;2023-04-07T03:17:06;7.80;;;3.90;;
79493;SDS011;68951;53.130;18.104;2023-04-07T03:19:33;9.20;;;4.10;;
79493;SDS011;68951;53.130;18.104;2023-04-07T03:22:00;9.70;;;4.10;;
79493;SDS011;68951;53.130;18.104;2023-04-07T03:24:27;6.90;;;2.90;;
79493;SDS011;68951;53.130;18.104;2023-04-07T03:26:54;7.10;;;2.80;;
79493;SDS011;68951;53.130;18.104;2023-04-07T03:29:21;7.10;;;3.00;;
79493;SDS011;68951;53.130;18.104;2023-04-07T03:31:48;11.00;;;5.00;;
79493;SDS011;68951;53.130;18.104;2023-04-07T03:34:15;10.10;;;4.30;;
79493;SDS011;68951;53.130;18.104;2023-04-07T03:36:42;9.80;;;4.50;;
79493;SDS011;68951;53.130;18.104;2023-04-07T03:39:08;15.00;;;7.60;;
79493;SDS011;68951;53.130;18.104;2023-04-07T03:41:35;15.30;;;8.70;;
79493;SDS011;68951;53.130;18.104;2023-04-07T03:44:02;17.40;;;9.30;;
79493;SDS011;68951;53.130;18.104;2023-04-07T03:46:29;11.30;;;5.20;;
79493;SDS011;68951;53.130;18.104;2023-04-07T03:48:56;13.60;;;6.50;;
79493;SDS011;68951;53.130;18.104;2023-04-07T03:51:23;17.70;;;8.70;;
79493;SDS011;68951;53.130;18.104;2023-04-07T03:53:50;14.70;;;7.80;;
79493;SDS011;68951;53.130;18.104;2023-04-07T03:56:17;12.90;;;6.10;;
79493;SDS011;68951;53.130;18.104;2023-04-07T03:58:44;15.00;;;7.70;;
79493;SDS011;68951;53.130;18.104;2023-04-07T04:01:12;16.40;;;7.90;;
79493;SDS011;68951;53.130;18.104;2023-04-07T04:03:39;11.40;;;5.80;;
79493;SDS011;68951;53.130;18.104;2023-04-07T04:06:05;15.50;;;8.00;;
79493;SDS011;68951;53.130;18.104;2023-04-07T04:08:32;11.80;;;5.40;;
79493;SDS011;68951;53.130;18.104;2023-04-07T04:10:59;10.00;;;4.50;;
79493;SDS011;68951;53.130;18.104;2023-04-07T04:13:27;8.50;;;4.10;;
79493;SDS011;68951;53.130;18.104;2023-04-07T04:15:54;12.80;;;5.60;;
79493;SDS011;68951;53.130;18.104;2023-04-07T04:18:20;10.40;;;4.60;;
79493;SDS011;68951;53.130;18.104;2023-04-07T04:20:47;16.00;;;7.50;;
79493;SDS011;68951;53.130;18.104;2023-04-07T04:23:14;14.30;;;7.50;;
79493;SDS011;68951;53.130;18.104;2023-04-07T04:25:41;13.00;;;5.90;;
79493;SDS011;68951;53.130;18.104;2023-04-07T04:28:08;11.30;;;5.10;;
79493;SDS011;68951;53.130;18.104;2023-04-07T04:30:35;13.20;;;6.60;;
79493;SDS011;68951;53.130;18.104;2023-04-07T04:33:02;13.40;;;6.50;;
79493;SDS011;68951;53.130;18.104;2023-04-07T04:35:29;15.00;;;8.20;;
79493;SDS011;68951;53.130;18.104;2023-04-07T04:37:56;13.00;;;6.50;;
79493;SDS011;68951;53.130;18.104;2023-04-07T04:40:22;11.70;;;6.30;;
79493;SDS011;68951;53.130;18.104;2023-04-07T04:42:49;17.00;;;7.80;;
79493;SDS011;68951;53.130;18.104;2023-04-07T04:45:16;17.80;;;7.40;;
79493;SDS011;68951;53.130;18.104;2023-04-07T04:47:43;14.30;;;6.60;;
79493;SDS011;68951;53.130;18.104;2023-04-07T04:50:10;16.50;;;6.90;;
79493;SDS011;68951;53.130;18.104;2023-04-07T04:52:36;12.10;;;5.80;;
79493;SDS011;68951;53.130;18.104;2023-04-07T04:55:04;12.70;;;6.60;;
79493;SDS011;68951;53.130;18.104;2023-04-07T04:57:32;11.20;;;4.70;;
79493;SDS011;68951;53.130;18.104;2023-04-07T05:00:02;11.50;;;3.70;;
79493;SDS011;68951;53.130;18.104;2023-04-07T05:02:29;7.80;;;2.80;;
79493;SDS011;68951;53.130;18.104;2023-04-07T05:04:56;10.20;;;3.20;;
79493;SDS011;68951;53.130;18.104;2023-04-07T05:07:23;8.70;;;3.60;;
79493;SDS011;68951;53.130;18.104;2023-04-07T05:09:50;13.20;;;5.30;;
79493;SDS011;68951;53.130;18.104;2023-04-07T05:12:17;11.60;;;4.90;;
79493;SDS011;68951;53.130;18.104;2023-04-07T05:14:44;11.10;;;5.30;;
79493;SDS011;68951;53.130;18.104;2023-04-07T05:17:11;10.00;;;3.90;;
79493;SDS011;68951;53.130;18.104;2023-04-07T05:19:37;10.00;;;4.30;;
79493;SDS011;68951;53.130;18.104;2023-04-07T05:22:04;8.80;;;3.70;;
79493;SDS011;68951;53.130;18.104;2023-04-07T05:24:31;9.80;;;4.50;;
79493;SDS011;68951;53.130;18.104;2023-04-07T05:26:58;7.40;;;2.20;;
79493;SDS011;68951;53.130;18.104;2023-04-07T05:29:25;8.70;;;3.80;;
79493;SDS011;68951;53.130;18.104;2023-04-07T05:31:51;11.80;;;5.60;;
79493;SDS011;68951;53.130;18.104;2023-04-07T05:34:18;14.40;;;5.40;;
79493;SDS011;68951;53.130;18.104;2023-04-07T05:36:45;7.80;;;2.90;;
79493;SDS011;68951;53.130;18.104;2023-04-07T05:39:12;13.00;;;5.30;;
79493;SDS011;68951;53.130;18.104;2023-04-07T05:41:39;9.90;;;3.90;;
79493;SDS011;68951;53.130;18.104;2023-04-07T05:44:06;9.80;;;4.30;;
79493;SDS011;68951;53.130;18.104;2023-04-07T05:46:33;9.20;;;4.00;;
79493;SDS011;68951;53.130;18.104;2023-04-07T05:49:00;12.60;;;4.30;;
79493;SDS011;68951;53.130;18.104;2023-04-07T05:51:27;8.80;;;3.70;;
79493;SDS011;68951;53.130;18.104;2023-04-07T05:53:54;12.30;;;5.50;;
79493;SDS011;68951;53.130;18.104;2023-04-07T05:56:20;7.40;;;2.80;;
79493;SDS011;68951;53.130;18.104;2023-04-07T05:58:47;14.40;;;5.90;;
79493;SDS011;68951;53.130;18.104;2023-04-07T06:01:14;11.10;;;4.80;;
79493;SDS011;68951;53.130;18.104;2023-04-07T06:03:41;13.70;;;6.10;;
79493;SDS011;68951;53.130;18.104;2023-04-07T06:06:09;8.80;;;3.50;;
79493;SDS011;68951;53.130;18.104;2023-04-07T06:08:35;12.60;;;4.80;;
79493;SDS011;68951;53.130;18.104;2023-04-07T06:11:03;10.40;;;4.30;;
79493;SDS011;68951;53.130;18.104;2023-04-07T06:13:29;11.00;;;4.50;;
79493;SDS011;68951;53.130;18.104;2023-04-07T06:15:56;12.80;;;6.00;;
79493;SDS011;68951;53.130;18.104;2023-04-07T06:18:24;15.90;;;6.80;;
79493;SDS011;68951;53.130;18.104;2023-04-07T06:20:51;12.10;;;6.10;;
79493;SDS011;68951;53.130;18.104;2023-04-07T06:23:17;15.60;;;5.90;;
79493;SDS011;68951;53.130;18.104;2023-04-07T06:25:44;12.30;;;5.40;;
79493;SDS011;68951;53.130;18.104;2023-04-07T06:28:11;11.20;;;4.90;;
79493;SDS011;68951;53.130;18.104;2023-04-07T06:30:38;12.70;;;4.90;;
79493;SDS011;68951;53.130;18.104;2023-04-07T06:33:06;11.70;;;4.90;;
79493;SDS011;68951;53.130;18.104;2023-04-07T06:35:33;8.40;;;3.70;;
79493;SDS011;68951;53.130;18.104;2023-04-07T06:38:00;15.60;;;7.20;;
79493;SDS011;68951;53.130;18.104;2023-04-07T06:40:27;14.70;;;7.00;;
79493;SDS011;68951;53.130;18.104;2023-04-07T06:42:54;14.70;;;6.40;;
79493;SDS011;68951;53.130;18.104;2023-04-07T06:45:21;13.40;;;6.30;;
79493;SDS011;68951;53.130;18.104;2023-04-07T06:47:48;8.20;;;3.20;;
79493;SDS011;68951;53.130;18.104;2023-04-07T06:50:15;13.60;;;6.10;;
79493;SDS011;68951;53.130;18.104;2023-04-07T06:52:46;11.50;;;5.30;;
79493;SDS011;68951;53.130;18.104;2023-04-07T06:55:13;10.60;;;4.10;;
79493;SDS011;68951;53.130;18.104;2023-04-07T06:57:40;10.90;;;5.10;;
79493;SDS011;68951;53.130;18.104;2023-04-07T07:00:07;12.10;;;6.20;;
79493;SDS011;68951;53.130;18.104;2023-04-07T07:02:35;14.60;;;6.40;;
79493;SDS011;68951;53.130;18.104;2023-04-07T07:05:02;17.70;;;6.70;;
79493;SDS011;68951;53.130;18.104;2023-04-07T07:07:30;12.20;;;5.90;;
79493;SDS011;68951;53.130;18.104;2023-04-07T07:09:57;14.10;;;5.90;;
79493;SDS011;68951;53.130;18.104;2023-04-07T07:12:24;14.00;;;6.40;;
79493;SDS011;68951;53.130;18.104;2023-04-07T07:14:51;9.50;;;4.40;;
79493;SDS011;68951;53.130;18.104;2023-04-07T07:17:17;10.80;;;4.50;;
79493;SDS011;68951;53.130;18.104;2023-04-07T07:19:44;15.30;;;7.20;;
79493;SDS011;68951;53.130;18.104;2023-04-07T07:22:11;12.70;;;6.20;;
79493;SDS011;68951;53.130;18.104;2023-04-07T07:24:38;13.20;;;6.60;;
79493;SDS011;68951;53.130;18.104;2023-04-07T07:27:05;11.30;;;6.30;;
79493;SDS011;68951;53.130;18.104;2023-04-07T07:29:32;14.60;;;6.40;;
79493;SDS011;68951;53.130;18.104;2023-04-07T07:31:59;8.80;;;3.70;;
79493;SDS011;68951;53.130;18.104;2023-04-07T07:34:25;11.10;;;5.30;;
79493;SDS011;68951;53.130;18.104;2023-04-07T07:36:52;9.50;;;4.60;;
79493;SDS011;68951;53.130;18.104;2023-04-07T07:39:19;9.40;;;4.50;;
79493;SDS011;68951;53.130;18.104;2023-04-07T07:41:46;11.60;;;5.10;;
79493;SDS011;68951;53.130;18.104;2023-04-07T07:44:13;13.00;;;6.20;;
79493;SDS011;68951;53.130;18.104;2023-04-07T07:46:40;11.80;;;5.50;;
79493;SDS011;68951;53.130;18.104;2023-04-07T07:49:07;12.10;;;5.70;;
79493;SDS011;68951;53.130;18.104;2023-04-07T07:51:34;11.30;;;5.00;;
79493;SDS011;68951;53.130;18.104;2023-04-07T07:54:00;10.70;;;4.40;;
79493;SDS011;68951;53.130;18.104;2023-04-07T07:56:27;10.50;;;4.50;;
79493;SDS011;68951;53.130;18.104;2023-04-07T07:58:54;9.60;;;3.90;;
79493;SDS011;68951;53.130;18.104;2023-04-07T08:01:21;13.30;;;5.60;;
79493;SDS011;68951;53.130;18.104;2023-04-07T08:03:48;9.90;;;4.00;;
79493;SDS011;68951;53.130;18.104;2023-04-07T08:06:15;10.40;;;4.80;;
79493;SDS011;68951;53.130;18.104;2023-04-07T08:08:42;12.40;;;5.60;;
79493;SDS011;68951;53.130;18.104;2023-04-07T08:11:08;10.10;;;5.50;;
79493;SDS011;68951;53.130;18.104;2023-04-07T08:13:35;12.70;;;6.10;;
79493;SDS011;68951;53.130;18.104;2023-04-07T08:16:02;12.10;;;5.00;;
79493;SDS011;68951;53.130;18.104;2023-04-07T08:18:29;6.40;;;2.30;;
79493;SDS011;68951;53.130;18.104;2023-04-07T08:20:56;11.60;;;4.20;;
79493;SDS011;68951;53.130;18.104;2023-04-07T08:23:22;13.10;;;6.00;;
79493;SDS011;68951;53.130;18.104;2023-04-07T08:25:49;10.90;;;4.00;;
79493;SDS011;68951;53.130;18.104;2023-04-07T08:28:16;11.90;;;5.40;;
79493;SDS011;68951;53.130;18.104;2023-04-07T08:30:43;15.90;;;5.60;;
79493;SDS011;68951;53.130;18.104;2023-04-07T08:33:10;13.60;;;5.70;;
79493;SDS011;68951;53.130;18.104;2023-04-07T08:35:37;9.40;;;3.80;;
79493;SDS011;68951;53.130;18.104;2023-04-07T08:38:04;11.70;;;5.80;;
79493;SDS011;68951;53.130;18.104;2023-04-07T08:40:31;10.80;;;4.50;;
79493;SDS011;68951;53.130;18.104;2023-04-07T08:42:59;13.40;;;6.00;;
79493;SDS011;68951;53.130;18.104;2023-04-07T08:45:28;11.80;;;6.30;;
79493;SDS011;68951;53.130;18.104;2023-04-07T08:47:58;13.90;;;6.60;;
79493;SDS011;68951;53.130;18.104;2023-04-07T08:50:30;11.50;;;4.30;;
79493;SDS011;68951;53.130;18.104;2023-04-07T08:52:59;12.50;;;5.40;;
79493;SDS011;68951;53.130;18.104;2023-04-07T08:55:29;12.80;;;5.50;;
79493;SDS011;68951;53.130;18.104;2023-04-07T08:57:56;10.30;;;4.20;;
79493;SDS011;68951;53.130;18.104;2023-04-07T09:00:23;10.80;;;4.80;;
79493;SDS011;68951;53.130;18.104;2023-04-07T09:02:51;11.40;;;5.40;;
79493;SDS011;68951;53.130;18.104;2023-04-07T09:05:18;9.80;;;4.30;;
79493;SDS011;68951;53.130;18.104;2023-04-07T09:07:46;10.70;;;5.10;;
79493;SDS011;68951;53.130;18.104;2023-04-07T09:10:14;11.10;;;5.70;;
79493;SDS011;68951;53.130;18.104;2023-04-07T09:12:42;10.40;;;5.50;;
79493;SDS011;68951;53.130;18.104;2023-04-07T09:15:09;10.50;;;5.80;;
79493;SDS011;68951;53.130;18.104;2023-04-07T09:17:36;12.30;;;5.60;;
79493;SDS011;68951;53.130;18.104;2023-04-07T09:20:04;10.90;;;5.10;;
79493;SDS011;68951;53.130;18.104;2023-04-07T09:25:18;8.60;;;4.30;;
79493;SDS011;68951;53.130;18.104;2023-04-07T09:28:03;8.90;;;4.10;;
79493;SDS011;68951;53.130;18.104;2023-04-07T09:30:32;11.60;;;5.40;;
79493;SDS011;68951;53.130;18.104;2023-04-07T09:33:00;10.20;;;4.70;;
79493;SDS011;68951;53.130;18.104;2023-04-07T09:35:27;12.40;;;5.90;;
79493;SDS011;68951;53.130;18.104;2023-04-07T09:38:02;6.80;;;2.80;;
79493;SDS011;68951;53.130;18.104;2023-04-07T09:40:34;10.50;;;5.40;;
79493;SDS011;68951;53.130;18.104;2023-04-07T09:43:04;9.90;;;4.80;;
79493;SDS011;68951;53.130;18.104;2023-04-07T09:45:32;9.90;;;5.40;;
79493;SDS011;68951;53.130;18.104;2023-04-07T09:48:07;10.40;;;5.40;;
79493;SDS011;68951;53.130;18.104;2023-04-07T09:50:45;9.80;;;5.00;;
79493;SDS011;68951;53.130;18.104;2023-04-07T09:53:17;10.30;;;5.30;;
79493;SDS011;68951;53.130;18.104;2023-04-07T09:55:48;12.90;;;6.00;;
79493;SDS011;68951;53.130;18.104;2023-04-07T09:58:16;10.30;;;5.70;;
79493;SDS011;68951;53.130;18.104;2023-04-07T10:00:44;10.30;;;4.80;;
79493;SDS011;68951;53.130;18.104;2023-04-07T10:03:12;9.80;;;5.00;;
79493;SDS011;68951;53.130;18.104;2023-04-07T10:05:41;13.10;;;6.60;;
79493;SDS011;68951;53.130;18.104;2023-04-07T10:08:09;10.20;;;5.90;;
79493;SDS011;68951;53.130;18.104;2023-04-07T10:10:40;10.50;;;5.10;;
79493;SDS011;68951;53.130;18.104;2023-04-07T10:13:08;5.50;;;2.00;;
79493;SDS011;68951;53.130;18.104;2023-04-07T10:15:36;10.50;;;4.90;;
79493;SDS011;68951;53.130;18.104;2023-04-07T10:18:06;11.80;;;6.20;;
79493;SDS011;68951;53.130;18.104;2023-04-07T10:20:36;9.20;;;4.60;;
79493;SDS011;68951;53.130;18.104;2023-04-07T10:23:26;12.70;;;6.60;;
79493;SDS011;68951;53.130;18.104;2023-04-07T10:26:00;11.90;;;6.30;;
79493;SDS011;68951;53.130;18.104;2023-04-07T10:28:29;12.00;;;5.90;;
79493;SDS011;68951;53.130;18.104;2023-04-07T10:30:57;11.50;;;5.40;;
79493;SDS011;68951;53.130;18.104;2023-04-07T10:33:50;10.50;;;4.70;;
79493;SDS011;68951;53.130;18.104;2023-04-07T10:36:19;8.90;;;4.90;;
79493;SDS011;68951;53.130;18.104;2023-04-07T10:44:00;9.50;;;4.40;;
79493;SDS011;68951;53.130;18.104;2023-04-07T10:49:17;10.90;;;5.40;;
79493;SDS011;68951;53.130;18.104;2023-04-07T10:54:40;11.40;;;6.80;;
79493;SDS011;68951;53.130;18.104;2023-04-07T10:59:41;9.30;;;4.50;;
79493;SDS011;68951;53.130;18.104;2023-04-07T11:02:31;10.90;;;5.70;;
79493;SDS011;68951;53.130;18.104;2023-04-07T11:05:00;9.10;;;4.30;;
79493;SDS011;68951;53.130;18.104;2023-04-07T11:07:45;11.40;;;6.00;;
79493;SDS011;68951;53.130;18.104;2023-04-07T11:10:15;11.40;;;5.90;;
79493;SDS011;68951;53.130;18.104;2023-04-07T11:12:57;9.40;;;4.80;;
79493;SDS011;68951;53.130;18.104;2023-04-07T11:15:35;12.10;;;6.20;;
79493;SDS011;68951;53.130;18.104;2023-04-07T11:18:10;10.90;;;5.60;;
79493;SDS011;68951;53.130;18.104;2023-04-07T11:23:21;12.50;;;6.50;;
79493;SDS011;68951;53.130;18.104;2023-04-07T11:25:51;11.80;;;6.50;;
79493;SDS011;68951;53.130;18.104;2023-04-07T11:28:28;12.50;;;6.70;;
79493;SDS011;68951;53.130;18.104;2023-04-07T11:30:57;10.00;;;4.00;;
79493;SDS011;68951;53.130;18.104;2023-04-07T11:33:30;11.70;;;6.00;;
79493;SDS011;68951;53.130;18.104;2023-04-07T11:35:59;11.20;;;5.50;;
79493;SDS011;68951;53.130;18.104;2023-04-07T11:38:34;11.70;;;6.30;;
79493;SDS011;68951;53.130;18.104;2023-04-07T11:41:10;11.30;;;5.60;;
79493;SDS011;68951;53.130;18.104;2023-04-07T11:43:39;14.40;;;8.00;;
79493;SDS011;68951;53.130;18.104;2023-04-07T11:46:13;13.40;;;7.60;;
79493;SDS011;68951;53.130;18.104;2023-04-07T11:49:09;12.90;;;6.50;;
79493;SDS011;68951;53.130;18.104;2023-04-07T11:51:42;14.00;;;7.60;;
79493;SDS011;68951;53.130;18.104;2023-04-07T11:54:10;12.80;;;7.20;;
79493;SDS011;68951;53.130;18.104;2023-04-07T11:56:41;13.20;;;6.80;;
79493;SDS011;68951;53.130;18.104;2023-04-07T11:59:23;13.80;;;7.70;;
79493;SDS011;68951;53.130;18.104;2023-04-07T12:01:51;13.40;;;8.10;;
79493;SDS011;68951;53.130;18.104;2023-04-07T12:04:18;15.90;;;9.00;;
79493;SDS011;68951;53.130;18.104;2023-04-07T12:06:47;14.50;;;8.70;;
79493;SDS011;68951;53.130;18.104;2023-04-07T12:09:31;16.10;;;8.60;;
79493;SDS011;68951;53.130;18.104;2023-04-07T12:12:02;10.10;;;5.20;;
79493;SDS011;68951;53.130;18.104;2023-04-07T12:14:34;13.20;;;7.50;;
79493;SDS011;68951;53.130;18.104;2023-04-07T12:17:01;12.40;;;6.40;;
79493;SDS011;68951;53.130;18.104;2023-04-07T12:19:30;12.90;;;7.30;;
79493;SDS011;68951;53.130;18.104;2023-04-07T12:22:01;14.40;;;8.30;;
79493;SDS011;68951;53.130;18.104;2023-04-07T12:24:27;17.10;;;9.20;;
79493;SDS011;68951;53.130;18.104;2023-04-07T12:26:54;16.00;;;9.50;;
79493;SDS011;68951;53.130;18.104;2023-04-07T12:29:21;15.10;;;8.40;;
79493;SDS011;68951;53.130;18.104;2023-04-07T12:31:48;13.50;;;7.00;;
79493;SDS011;68951;53.130;18.104;2023-04-07T12:34:15;14.30;;;7.40;;
79493;SDS011;68951;53.130;18.104;2023-04-07T12:36:42;13.10;;;7.70;;
79493;SDS011;68951;53.130;18.104;2023-04-07T12:39:10;15.00;;;8.20;;
79493;SDS011;68951;53.130;18.104;2023-04-07T12:41:37;13.90;;;6.80;;
79493;SDS011;68951;53.130;18.104;2023-04-07T12:44:05;14.20;;;7.50;;
79493;SDS011;68951;53.130;18.104;2023-04-07T12:46:32;15.00;;;7.70;;
79493;SDS011;68951;53.130;18.104;2023-04-07T12:48:59;19.10;;;9.10;;
79493;SDS011;68951;53.130;18.104;2023-04-07T12:51:26;13.30;;;7.30;;
79493;SDS011;68951;53.130;18.104;2023-04-07T12:53:53;14.70;;;7.00;;
79493;SDS011;68951;53.130;18.104;2023-04-07T12:56:20;15.60;;;8.80;;
79493;SDS011;68951;53.130;18.104;2023-04-07T12:58:48;16.00;;;7.60;;
79493;SDS011;68951;53.130;18.104;2023-04-07T13:01:15;13.80;;;8.40;;
79493;SDS011;68951;53.130;18.104;2023-04-07T13:03:41;18.50;;;10.00;;
79493;SDS011;68951;53.130;18.104;2023-04-07T13:06:08;15.30;;;8.00;;
79493;SDS011;68951;53.130;18.104;2023-04-07T13:08:36;13.30;;;7.80;;
79493;SDS011;68951;53.130;18.104;2023-04-07T13:11:04;14.20;;;7.70;;
79493;SDS011;68951;53.130;18.104;2023-04-07T13:13:31;15.40;;;8.70;;
79493;SDS011;68951;53.130;18.104;2023-04-07T13:15:58;17.00;;;10.10;;
79493;SDS011;68951;53.130;18.104;2023-04-07T13:18:24;11.30;;;6.30;;
79493;SDS011;68951;53.130;18.104;2023-04-07T13:20:51;13.90;;;8.00;;
79493;SDS011;68951;53.130;18.104;2023-04-07T13:23:18;13.60;;;7.40;;
79493;SDS011;68951;53.130;18.104;2023-04-07T13:25:45;18.90;;;9.50;;
79493;SDS011;68951;53.130;18.104;2023-04-07T13:28:12;18.70;;;10.70;;
79493;SDS011;68951;53.130;18.104;2023-04-07T13:30:39;18.40;;;10.20;;
79493;SDS011;68951;53.130;18.104;2023-04-07T13:33:07;21.10;;;11.40;;
79493;SDS011;68951;53.130;18.104;2023-04-07T13:35:33;23.70;;;14.60;;
79493;SDS011;68951;53.130;18.104;2023-04-07T13:38:02;17.20;;;9.90;;
79493;SDS011;68951;53.130;18.104;2023-04-07T13:40:29;19.40;;;10.20;;
79493;SDS011;68951;53.130;18.104;2023-04-07T13:42:56;13.10;;;7.20;;
79493;SDS011;68951;53.130;18.104;2023-04-07T13:45:23;19.20;;;9.90;;
79493;SDS011;68951;53.130;18.104;2023-04-07T13:47:50;17.90;;;9.70;;
79493;SDS011;68951;53.130;18.104;2023-04-07T13:50:17;18.90;;;9.40;;
79493;SDS011;68951;53.130;18.104;2023-04-07T13:52:44;13.10;;;8.00;;
79493;SDS011;68951;53.130;18.104;2023-04-07T13:55:12;17.40;;;9.50;;
79493;SDS011;68951;53.130;18.104;2023-04-07T13:57:38;13.30;;;7.10;;
79493;SDS011;68951;53.130;18.104;2023-04-07T14:00:06;14.60;;;8.90;;
79493;SDS011;68951;53.130;18.104;2023-04-07T14:02:33;13.20;;;7.70;;
79493;SDS011;68951;53.130;18.104;2023-04-07T14:05:00;15.60;;;9.70;;
79493;SDS011;68951;53.130;18.104;2023-04-07T14:07:27;15.50;;;9.10;;
79493;SDS011;68951;53.130;18.104;2023-04-07T14:09:54;16.10;;;8.60;;
79493;SDS011;68951;53.130;18.104;2023-04-07T14:12:21;17.10;;;10.40;;
79493;SDS011;68951;53.130;18.104;2023-04-07T14:14:49;16.00;;;9.80;;
79493;SDS011;68951;53.130;18.104;2023-04-07T14:17:17;14.80;;;8.30;;
79493;SDS011;68951;53.130;18.104;2023-04-07T14:19:44;16.40;;;8.90;;
79493;SDS011;68951;53.130;18.104;2023-04-07T14:22:13;14.50;;;8.00;;
79493;SDS011;68951;53.130;18.104;2023-04-07T14:24:40;14.70;;;8.00;;
79493;SDS011;68951;53.130;18.104;2023-04-07T14:27:07;15.70;;;9.00;;
79493;SDS011;68951;53.130;18.104;2023-04-07T14:29:34;15.40;;;9.60;;
79493;SDS011;68951;53.130;18.104;2023-04-07T14:32:01;19.50;;;9.60;;
79493;SDS011;68951;53.130;18.104;2023-04-07T14:34:28;20.70;;;9.20;;
79493;SDS011;68951;53.130;18.104;2023-04-07T14:36:55;12.30;;;6.00;;
79493;SDS011;68951;53.130;18.104;2023-04-07T14:39:24;18.10;;;10.20;;
79493;SDS011;68951;53.130;18.104;2023-04-07T14:41:52;18.70;;;9.50;;
79493;SDS011;68951;53.130;18.104;2023-04-07T14:44:19;16.80;;;9.20;;
79493;SDS011;68951;53.130;18.104;2023-04-07T14:46:46;15.70;;;8.80;;
79493;SDS011;68951;53.130;18.104;2023-04-07T14:49:14;17.00;;;9.30;;
79493;SDS011;68951;53.130;18.104;2023-04-07T14:51:41;14.70;;;9.20;;
79493;SDS011;68951;53.130;18.104;2023-04-07T14:54:08;14.90;;;9.00;;
79493;SDS011;68951;53.130;18.104;2023-04-07T14:56:34;15.90;;;9.00;;
79493;SDS011;68951;53.130;18.104;2023-04-07T14:59:01;16.60;;;9.60;;
79493;SDS011;68951;53.130;18.104;2023-04-07T15:01:28;16.50;;;9.90;;